Time;durP1;ratioP1;P1;durP2;ratioP2;P2;SDS_P1;SDS_P2;PMS_P1;PMS_P2;Temp;Humidity;BMP_temperature;BMP_pressure;BME280_temperature;BME280_humidity;BME280_pressure;Samples;Min_cycle;Max_cycle;Signal;HPM_P1;HPM_P2
2024/01/03 00:00:35;;;;;;;3.30;1.40;;;15.20;99.90;;;;;;4995698;28;20184;-92
2024/01/03 00:03:02;;;;;;;2.60;1.10;;;15.20;99.90;;;;;;4996578;28;20634;-92
2024/01/03 00:05:41;;;;;;;2.20;1.00;;;15.20;99.90;;;;;;4997537;28;20213;-92
2024/01/03 00:08:30;;;;;;;2.83;1.13;;;15.20;99.90;;;;;;4997480;28;20177;-92
2024/01/03 00:11:04;;;;;;;1.67;1.00;;;15.10;99.90;;;;;;4982510;28;20210;-92
2024/01/03 00:13:30;;;;;;;2.40;1.27;;;15.10;99.90;;;;;;4999934;28;20438;-93
2024/01/03 00:16:03;;;;;;;3.17;1.17;;;15.10;99.90;;;;;;4996924;28;20602;-93
2024/01/03 00:18:45;;;;;;;1.73;0.93;;;15.10;99.90;;;;;;4996164;28;20188;-92
2024/01/03 00:21:49;;;;;;;2.30;1.10;;;15.10;99.90;;;;;;4997020;28;20188;-92
2024/01/03 00:24:20;;;;;;;2.93;1.20;;;15.10;99.90;;;;;;4962094;28;20196;-91
2024/01/03 00:26:47;;;;;;;1.83;0.93;;;15.10;99.90;;;;;;4995401;28;20221;-92
2024/01/03 00:29:48;;;;;;;3.00;1.20;;;15.10;99.90;;;;;;4991459;28;20173;-93
2024/01/03 00:32:14;;;;;;;2.07;1.00;;;15.10;99.90;;;;;;4990003;28;20174;-92
2024/01/03 00:34:43;;;;;;;2.33;1.00;;;15.10;99.90;;;;;;4994824;28;20173;-91
2024/01/03 00:37:30;;;;;;;2.23;1.07;;;15.10;99.90;;;;;;4994804;28;20638;-91
2024/01/03 00:39:58;;;;;;;3.87;1.20;;;15.10;99.90;;;;;;4994814;28;20239;-91
2024/01/03 00:42:25;;;;;;;2.17;1.00;;;15.10;99.90;;;;;;4993315;28;20178;-92
2024/01/03 00:44:51;;;;;;;4.53;1.30;;;15.10;99.90;;;;;;4994128;28;20177;-91
2024/01/03 00:47:20;;;;;;;2.17;1.17;;;15.10;99.90;;;;;;4993679;28;20241;-91
2024/01/03 00:49:50;;;;;;;2.50;1.20;;;15.10;99.90;;;;;;4993576;28;20167;-92
2024/01/03 00:52:16;;;;;;;2.17;1.30;;;15.10;99.90;;;;;;4995693;28;20313;-92
2024/01/03 00:54:46;;;;;;;3.07;1.30;;;15.10;99.90;;;;;;4996296;28;20245;-92
2024/01/03 00:57:14;;;;;;;4.53;1.30;;;15.10;99.90;;;;;;5003176;28;20182;-92
2024/01/03 00:59:44;;;;;;;3.37;1.50;;;15.10;99.90;;;;;;4998652;28;20177;-93
2024/01/03 01:02:16;;;;;;;2.60;0.90;;;15.10;99.90;;;;;;4997628;28;20173;-93
2024/01/03 01:09:47;;;;;;;3.03;1.10;;;15.10;99.90;;;;;;5050083;28;20231;0
2024/01/03 01:12:16;;;;;;;2.70;1.17;;;15.10;99.90;;;;;;5069907;28;20169;0
2024/01/03 01:14:41;;;;;;;2.57;1.60;;;15.10;99.90;;;;;;5069213;28;20457;0
2024/01/03 01:17:07;;;;;;;4.20;1.30;;;15.10;99.90;;;;;;5056034;28;20545;0
2024/01/03 01:19:34;;;;;;;2.43;1.20;;;15.10;99.90;;;;;;5056447;28;20179;0
2024/01/03 01:21:59;;;;;;;3.50;1.30;;;15.10;99.90;;;;;;5072184;28;20425;0
2024/01/03 01:24:28;;;;;;;1.83;1.10;;;15.10;99.90;;;;;;5039176;28;20187;0
2024/01/03 01:26:55;;;;;;;5.30;1.43;;;15.10;99.90;;;;;;5056503;28;20502;0
2024/01/03 01:29:20;;;;;;;3.50;1.20;;;15.10;99.90;;;;;;5057631;28;20177;0
2024/01/03 01:31:47;;;;;;;1.73;1.00;;;15.10;99.90;;;;;;5055927;28;20175;0
2024/01/03 01:34:15;;;;;;;2.70;1.20;;;15.10;99.90;;;;;;5038579;28;20552;0
2024/01/03 01:36:45;;;;;;;3.03;1.20;;;15.20;99.90;;;;;;5039067;28;20187;0
2024/01/03 01:39:11;;;;;;;2.13;1.10;;;15.20;99.90;;;;;;5038455;28;20180;0
2024/01/03 01:41:37;;;;;;;2.23;1.17;;;15.10;99.90;;;;;;5056504;28;20175;0
2024/01/03 01:44:02;;;;;;;2.20;1.10;;;15.10;99.90;;;;;;5056187;28;20340;0
2024/01/03 01:46:28;;;;;;;1.93;1.00;;;15.10;99.90;;;;;;5056698;28;20211;0
2024/01/03 01:48:58;;;;;;;2.47;1.00;;;15.10;99.90;;;;;;5055529;28;20168;0
2024/01/03 01:51:23;;;;;;;4.40;1.20;;;15.10;99.90;;;;;;5055138;28;20273;0
2024/01/03 01:53:50;;;;;;;0.87;0.73;;;15.20;99.90;;;;;;5055935;28;20176;0
2024/01/03 01:56:20;;;;;;;3.00;1.17;;;15.20;99.90;;;;;;5055412;28;20180;0
2024/01/03 01:58:48;;;;;;;3.20;1.17;;;15.20;99.90;;;;;;5039798;28;20186;0
2024/01/03 02:01:14;;;;;;;1.87;1.07;;;15.20;99.90;;;;;;5039393;28;20186;0
2024/01/03 02:03:41;;;;;;;2.93;1.20;;;15.20;99.90;;;;;;5056455;28;20576;0
2024/01/03 02:06:08;;;;;;;3.30;1.33;;;15.10;99.90;;;;;;5055976;28;20208;-2
2024/01/03 02:08:35;;;;;;;2.03;0.93;;;15.20;99.90;;;;;;5038029;28;20265;-2
2024/01/03 02:11:04;;;;;;;4.13;1.20;;;15.10;99.90;;;;;;5037764;28;20235;-2
2024/01/03 02:13:30;;;;;;;2.57;1.17;;;15.20;99.90;;;;;;5051102;28;20294;-2
2024/01/03 02:15:56;;;;;;;4.30;1.40;;;15.20;99.90;;;;;;5038294;28;20536;-2
2024/01/03 02:18:25;;;;;;;2.00;0.90;;;15.20;99.90;;;;;;5071451;28;20180;-2
2024/01/03 02:20:52;;;;;;;3.17;1.20;;;15.10;99.90;;;;;;5055756;28;20230;-2
2024/01/03 02:23:18;;;;;;;2.07;1.10;;;15.20;99.90;;;;;;5056203;28;20179;-2
2024/01/03 02:25:43;;;;;;;3.60;1.40;;;15.10;99.90;;;;;;5055462;28;20203;-3
2024/01/03 02:28:16;;;;;;;3.07;1.20;;;15.10;99.90;;;;;;5037942;28;20172;-2
2024/01/03 02:30:44;;;;;;;2.93;1.00;;;15.10;99.90;;;;;;5056930;28;20306;-2
2024/01/03 02:33:11;;;;;;;3.43;1.27;;;15.10;99.90;;;;;;5039621;28;20567;-2
2024/01/03 02:35:37;;;;;;;2.90;1.10;;;15.10;99.90;;;;;;5055383;28;20282;-2
2024/01/03 02:38:06;;;;;;;4.03;1.33;;;15.10;99.90;;;;;;5055776;28;20194;-2
2024/01/03 02:40:32;;;;;;;3.07;1.20;;;15.10;99.90;;;;;;5039038;28;20186;-2
2024/01/03 02:43:00;;;;;;;1.60;1.20;;;15.10;99.90;;;;;;5054703;28;20542;-2
2024/01/03 02:45:26;;;;;;;2.67;1.20;;;15.00;99.90;;;;;;5055593;28;20210;-2
2024/01/03 02:47:52;;;;;;;2.63;1.07;;;15.10;99.90;;;;;;5055292;28;20345;-2
2024/01/03 02:50:17;;;;;;;2.07;0.90;;;15.00;99.90;;;;;;5038410;28;20321;-2
2024/01/03 02:52:43;;;;;;;3.47;1.07;;;15.10;99.90;;;;;;5038811;28;20526;-2
2024/01/03 02:55:09;;;;;;;2.10;1.10;;;15.10;99.90;;;;;;5055832;28;20623;-2
2024/01/03 02:57:35;;;;;;;2.20;1.10;;;15.10;99.90;;;;;;5054394;28;20184;-2
2024/01/03 03:00:00;;;;;;;2.00;0.97;;;15.00;99.90;;;;;;5069687;28;20187;-2
2024/01/03 03:02:29;;;;;;;2.40;1.37;;;15.00;99.90;;;;;;5052764;28;20184;-2
2024/01/03 03:04:55;;;;;;;3.00;1.20;;;15.00;99.90;;;;;;5036311;28;20184;-2
2024/01/03 03:07:20;;;;;;;3.47;1.20;;;15.00;99.90;;;;;;5034861;28;20217;-2
2024/01/03 03:09:46;;;;;;;3.83;1.27;;;15.00;99.90;;;;;;5054094;28;20171;-2
2024/01/03 03:12:12;;;;;;;1.80;0.97;;;15.00;99.90;;;;;;5052754;28;20517;-2
2024/01/03 03:14:37;;;;;;;1.70;0.90;;;15.00;99.90;;;;;;5052405;28;20205;-2
2024/01/03 03:17:07;;;;;;;2.53;1.23;;;15.00;99.90;;;;;;5037132;28;20184;-2
2024/01/03 03:19:32;;;;;;;1.90;1.00;;;15.00;99.90;;;;;;5053613;28;20323;-2
2024/01/03 03:21:59;;;;;;;2.30;1.10;;;15.00;99.90;;;;;;5054217;28;20270;-2
2024/01/03 03:24:25;;;;;;;1.93;0.97;;;15.00;99.90;;;;;;5055200;28;20581;-2
2024/01/03 03:26:52;;;;;;;1.57;0.97;;;15.00;99.90;;;;;;5054563;28;20204;-2
2024/01/03 03:29:20;;;;;;;2.30;1.23;;;15.00;99.90;;;;;;5037422;28;20664;-2
2024/01/03 03:31:49;;;;;;;2.27;1.20;;;15.00;99.90;;;;;;5038009;28;20183;-2
2024/01/03 03:34:18;;;;;;;1.50;1.00;;;15.00;99.90;;;;;;5037407;28;20203;-2
2024/01/03 03:36:50;;;;;;;1.80;1.17;;;15.00;99.90;;;;;;5036648;28;20340;-2
2024/01/03 03:39:19;;;;;;;1.70;1.00;;;15.00;99.90;;;;;;5071394;28;20180;-2
2024/01/03 03:41:44;;;;;;;1.57;0.80;;;15.00;99.90;;;;;;5054433;28;20191;-2
2024/01/03 03:44:11;;;;;;;1.93;1.00;;;15.00;99.90;;;;;;5070622;28;20183;-2
2024/01/03 03:46:36;;;;;;;1.73;0.97;;;15.00;99.90;;;;;;5053692;28;20622;-2
2024/01/03 03:49:02;;;;;;;1.27;0.90;;;15.00;99.90;;;;;;5054169;28;20195;-2
2024/01/03 03:51:28;;;;;;;2.37;0.83;;;15.00;99.90;;;;;;5054740;28;20423;-2
2024/01/03 03:53:54;;;;;;;2.87;1.20;;;15.00;99.90;;;;;;5053935;28;20177;-2
2024/01/03 03:56:24;;;;;;;2.77;1.03;;;15.00;99.90;;;;;;5053179;28;20180;-2
2024/01/03 03:58:50;;;;;;;2.37;0.97;;;15.00;99.90;;;;;;5037024;28;20586;-2
2024/01/03 04:01:16;;;;;;;2.67;1.17;;;15.00;99.90;;;;;;5054151;28;20190;-2
2024/01/03 04:03:42;;;;;;;2.73;1.00;;;15.00;99.90;;;;;;5052863;28;20180;-2
2024/01/03 04:06:13;;;;;;;3.27;1.10;;;15.00;99.90;;;;;;5053153;28;20204;-2
2024/01/03 04:08:43;;;;;;;2.40;1.10;;;15.00;99.90;;;;;;5037077;28;20317;-2
2024/01/03 04:11:10;;;;;;;1.93;0.90;;;15.00;99.90;;;;;;5055047;28;20185;-2
2024/01/03 04:13:38;;;;;;;2.63;1.00;;;14.90;99.90;;;;;;5055047;28;20206;-2
2024/01/03 04:16:09;;;;;;;2.07;1.00;;;14.90;99.90;;;;;;5038114;28;20194;-2
2024/01/03 04:18:36;;;;;;;3.80;1.10;;;14.90;99.90;;;;;;5055707;28;20195;-2
2024/01/03 04:21:05;;;;;;;2.60;1.10;;;15.00;99.90;;;;;;5037296;28;20191;-2
2024/01/03 04:23:34;;;;;;;2.83;0.97;;;14.90;99.90;;;;;;5037322;28;20186;-2
2024/01/03 04:26:00;;;;;;;1.37;0.80;;;14.90;99.90;;;;;;5035867;28;20315;-2
2024/01/03 04:28:29;;;;;;;2.43;1.10;;;14.90;99.90;;;;;;5034482;28;20306;-2
2024/01/03 04:30:57;;;;;;;2.30;0.80;;;14.90;99.90;;;;;;5051343;28;20164;-2
2024/01/03 04:33:23;;;;;;;1.70;0.97;;;14.90;99.90;;;;;;5051818;28;20164;-2
2024/01/03 04:35:48;;;;;;;1.73;1.00;;;14.90;99.90;;;;;;5033664;28;20188;-2
2024/01/03 04:38:14;;;;;;;1.83;1.10;;;14.90;99.90;;;;;;5067620;28;20180;-2
2024/01/03 04:40:40;;;;;;;2.47;1.00;;;14.90;99.90;;;;;;5033811;28;20191;-2
2024/01/03 04:43:06;;;;;;;2.23;0.90;;;14.80;99.90;;;;;;5051312;28;20638;-2
2024/01/03 04:45:31;;;;;;;1.80;0.90;;;14.80;99.90;;;;;;5035073;28;20527;-2
2024/01/03 04:47:57;;;;;;;1.77;0.90;;;15.00;99.90;;;;;;5035604;28;20429;-2
2024/01/03 04:50:23;;;;;;;1.77;0.93;;;15.20;99.90;;;;;;5056313;28;20442;-2
2024/01/03 04:52:52;;;;;;;2.17;1.00;;;15.30;99.90;;;;;;5056146;28;20178;-2
2024/01/03 04:55:17;;;;;;;1.53;0.90;;;15.60;99.30;;;;;;5058692;28;20178;-2
2024/01/03 04:57:43;;;;;;;1.73;1.00;;;15.80;98.70;;;;;;5058860;28;20164;-2
2024/01/03 05:00:13;;;;;;;2.87;0.97;;;16.00;98.10;;;;;;5040662;28;20245;-3
2024/01/03 05:02:41;;;;;;;2.03;1.00;;;16.20;97.70;;;;;;5057759;28;20269;-2
2024/01/03 05:05:10;;;;;;;1.70;0.90;;;16.30;97.40;;;;;;5058119;28;20175;-2
2024/01/03 05:07:36;;;;;;;1.77;1.00;;;16.30;97.10;;;;;;5056871;28;20320;-2
2024/01/03 05:10:02;;;;;;;2.30;1.00;;;16.40;97.00;;;;;;5057855;28;20174;-2
2024/01/03 05:12:28;;;;;;;3.60;1.10;;;16.50;96.80;;;;;;5056951;28;20179;-2
2024/01/03 05:14:53;;;;;;;2.20;1.03;;;16.50;96.60;;;;;;5057740;28;20175;-2
2024/01/03 05:17:22;;;;;;;1.67;0.97;;;16.50;96.50;;;;;;5039292;28;20189;-2
2024/01/03 05:19:48;;;;;;;2.50;1.00;;;16.50;96.40;;;;;;5039778;28;20175;-2
2024/01/03 05:22:14;;;;;;;2.17;1.00;;;16.50;96.40;;;;;;5056301;28;20327;-2
2024/01/03 05:24:40;;;;;;;2.17;1.00;;;16.50;96.40;;;;;;5057203;28;20176;-2
2024/01/03 05:27:08;;;;;;;1.30;0.80;;;16.50;96.40;;;;;;5057187;28;20299;-2
2024/01/03 05:29:36;;;;;;;1.60;0.90;;;16.50;96.50;;;;;;5038665;28;20175;-2
2024/01/03 05:32:05;;;;;;;3.13;1.17;;;16.40;96.50;;;;;;5038089;28;20266;-2
2024/01/03 05:34:31;;;;;;;2.10;1.10;;;16.30;96.70;;;;;;5054528;28;20167;-2
2024/01/03 05:36:57;;;;;;;3.07;1.00;;;16.20;96.90;;;;;;5054449;28;20222;-2
2024/01/03 05:39:23;;;;;;;2.17;0.90;;;16.10;97.00;;;;;;5055015;28;20170;-2
2024/01/03 05:41:49;;;;;;;3.20;1.03;;;16.10;97.20;;;;;;5054855;28;20186;-2
2024/01/03 05:44:18;;;;;;;1.97;1.20;;;16.10;97.30;;;;;;5053646;28;20179;-2
2024/01/03 05:46:44;;;;;;;2.30;1.13;;;16.00;97.40;;;;;;5036664;28;20200;-2
2024/01/03 05:49:10;;;;;;;2.33;1.20;;;15.90;97.60;;;;;;5041858;28;20184;-2
2024/01/03 05:51:35;;;;;;;1.70;1.10;;;15.80;97.80;;;;;;5059341;28;20231;-2
2024/01/03 05:54:01;;;;;;;2.07;1.17;;;15.70;98.00;;;;;;5059054;28;20183;-2
2024/01/03 05:56:29;;;;;;;1.60;0.80;;;15.70;98.20;;;;;;5059665;28;20168;-2
2024/01/03 05:58:55;;;;;;;3.87;1.33;;;15.60;98.40;;;;;;5059571;28;20179;-2
2024/01/03 06:01:20;;;;;;;1.70;0.80;;;15.60;98.50;;;;;;5070054;22;20207;-75
2024/01/03 06:03:47;;;;;;;2.07;1.13;;;15.50;98.60;;;;;;5034825;28;20260;-75
2024/01/03 06:06:14;;;;;;;2.43;0.90;;;15.50;98.70;;;;;;5033668;28;20204;-75
2024/01/03 06:08:42;;;;;;;2.67;1.20;;;15.50;98.70;;;;;;5034127;28;20169;-75
2024/01/03 06:11:09;;;;;;;3.10;1.20;;;15.50;98.70;;;;;;5034267;28;20179;-75
2024/01/03 06:13:37;;;;;;;3.60;1.40;;;15.50;98.70;;;;;;5032700;28;20172;-75
2024/01/03 06:16:08;;;;;;;1.80;1.07;;;15.50;98.70;;;;;;5033390;28;20234;-75
2024/01/03 06:18:37;;;;;;;1.90;1.13;;;15.50;98.60;;;;;;5032582;28;20278;-76
2024/01/03 06:21:03;;;;;;;3.07;1.03;;;15.60;98.60;;;;;;5033587;28;20188;-76
2024/01/03 06:23:29;;;;;;;2.70;1.27;;;15.60;98.60;;;;;;5032630;28;20186;-76
2024/01/03 06:25:54;;;;;;;1.33;0.90;;;15.60;98.60;;;;;;5034953;28;20195;-75
2024/01/03 06:28:21;;;;;;;2.80;1.30;;;15.60;98.60;;;;;;5034278;28;20264;-77
2024/01/03 06:30:47;;;;;;;3.03;1.30;;;15.60;98.50;;;;;;5032757;28;20178;-77
2024/01/03 06:33:13;;;;;;;4.20;1.30;;;15.60;98.60;;;;;;5033062;28;20297;-76
2024/01/03 06:35:41;;;;;;;3.87;1.37;;;15.60;98.70;;;;;;5032435;28;20180;-76
2024/01/03 06:38:07;;;;;;;3.80;1.20;;;15.60;99.10;;;;;;5033078;28;20176;-75
2024/01/03 06:40:32;;;;;;;2.53;1.30;;;15.70;99.10;;;;;;5032909;28;20183;-76
2024/01/03 06:43:06;;;;;;;2.77;1.50;;;15.70;99.30;;;;;;5032923;28;20179;-76
2024/01/03 06:45:32;;;;;;;4.40;1.57;;;15.70;99.50;;;;;;5033227;28;20353;-77
2024/01/03 06:48:02;;;;;;;2.90;1.30;;;15.70;99.70;;;;;;5033077;28;20282;-79
2024/01/03 06:50:27;;;;;;;3.57;1.30;;;15.70;99.90;;;;;;5033842;28;20175;-79
2024/01/03 06:52:56;;;;;;;3.30;1.37;;;15.60;99.90;;;;;;5033193;28;20176;-78
2024/01/03 06:55:22;;;;;;;8.53;1.80;;;15.60;99.90;;;;;;5031213;28;20566;-76
2024/01/03 06:57:48;;;;;;;13.50;2.33;;;15.60;99.90;;;;;;5031173;28;20165;-76
2024/01/03 07:00:15;;;;;;;12.97;2.50;;;15.60;99.90;;;;;;5029181;28;20246;-77
2024/01/03 07:02:41;;;;;;;12.57;2.23;;;15.60;99.90;;;;;;5030468;28;20191;-77
2024/01/03 07:05:07;;;;;;;14.10;2.43;;;15.60;99.90;;;;;;5030109;28;20555;-77
2024/01/03 07:07:33;;;;;;;12.50;2.60;;;15.60;99.90;;;;;;5030840;28;20296;-77
2024/01/03 07:09:59;;;;;;;11.33;2.00;;;15.60;99.90;;;;;;5030081;28;20714;-78
2024/01/03 07:12:25;;;;;;;16.80;2.17;;;15.50;99.90;;;;;;5028047;28;20225;-76
2024/01/03 07:14:50;;;;;;;10.70;2.33;;;15.50;99.90;;;;;;5027654;28;20186;-76
2024/01/03 07:17:16;;;;;;;6.83;1.80;;;15.50;99.90;;;;;;5027612;28;20230;-77
2024/01/03 07:19:42;;;;;;;8.60;1.93;;;15.50;99.90;;;;;;5028446;28;20545;-75
2024/01/03 07:22:08;;;;;;;6.73;2.20;;;15.50;99.90;;;;;;5029831;28;20266;-75
2024/01/03 07:24:38;;;;;;;6.73;2.40;;;15.50;99.90;;;;;;5031217;28;20278;-75
2024/01/03 07:27:10;;;;;;;5.43;1.80;;;15.50;99.90;;;;;;5030180;28;20595;-75
2024/01/03 07:29:36;;;;;;;5.23;1.67;;;15.50;99.90;;;;;;5032751;28;20564;-75
2024/01/03 07:32:02;;;;;;;4.17;1.63;;;15.50;99.90;;;;;;5035260;28;20188;-76
2024/01/03 07:34:27;;;;;;;3.90;2.10;;;15.50;99.90;;;;;;5035561;28;20168;-76
2024/01/03 07:36:56;;;;;;;5.33;1.90;;;15.50;99.90;;;;;;5031652;28;20223;-76
2024/01/03 07:39:23;;;;;;;4.43;1.80;;;15.50;99.90;;;;;;5030272;28;20181;-76
2024/01/03 07:41:49;;;;;;;5.47;1.90;;;15.50;99.90;;;;;;5035622;28;20597;-76
2024/01/03 07:44:15;;;;;;;2.87;1.50;;;15.50;99.90;;;;;;5034954;28;20172;-75
2024/01/03 07:46:41;;;;;;;4.97;1.57;;;15.50;99.90;;;;;;5032131;28;20600;-76
2024/01/03 07:49:07;;;;;;;7.17;1.73;;;15.40;99.90;;;;;;5026262;28;20180;-76
2024/01/03 07:51:38;;;;;;;4.17;1.53;;;15.40;99.90;;;;;;5027036;28;20180;-78
2024/01/03 07:54:04;;;;;;;4.57;1.83;;;15.40;99.90;;;;;;5027773;28;20176;-78
2024/01/03 07:56:30;;;;;;;7.17;1.83;;;15.40;99.90;;;;;;5029551;28;20379;-76
2024/01/03 07:58:56;;;;;;;6.70;1.80;;;15.40;99.90;;;;;;5026149;28;20424;-76
2024/01/03 08:01:25;;;;;;;7.93;2.17;;;15.40;99.90;;;;;;5030071;28;20234;-79
2024/01/03 08:03:50;;;;;;;4.97;1.60;;;15.50;99.90;;;;;;5029723;28;20180;-78
2024/01/03 08:06:23;;;;;;;5.07;1.80;;;15.50;99.90;;;;;;5031053;28;20547;-78
2024/01/03 08:08:49;;;;;;;4.90;1.57;;;15.50;99.90;;;;;;5027454;28;20273;-78
2024/01/03 08:11:17;;;;;;;3.77;1.90;;;15.50;99.90;;;;;;5028994;28;20241;-79
2024/01/03 08:13:44;;;;;;;3.80;1.90;;;15.50;99.90;;;;;;5032191;28;20169;-78
2024/01/03 08:16:11;;;;;;;5.30;2.27;;;15.50;99.90;;;;;;5033380;28;20199;-77
2024/01/03 08:18:40;;;;;;;7.47;1.83;;;15.50;99.90;;;;;;5029772;28;20176;-78
2024/01/03 08:21:06;;;;;;;5.87;2.00;;;15.50;99.90;;;;;;5030168;28;20169;-78
2024/01/03 08:23:34;;;;;;;7.73;1.90;;;15.50;99.90;;;;;;5028910;28;20347;-79
2024/01/03 08:26:00;;;;;;;5.27;1.70;;;15.50;99.90;;;;;;5029192;28;20291;-79
2024/01/03 08:28:26;;;;;;;4.83;1.90;;;15.50;99.90;;;;;;5029333;28;20264;-79
2024/01/03 08:31:01;;;;;;;4.93;2.17;;;15.50;99.90;;;;;;5029721;28;20219;-79
2024/01/03 08:33:36;;;;;;;7.70;1.90;;;15.50;99.90;;;;;;5029271;28;20179;-79
2024/01/03 08:36:02;;;;;;;5.00;1.57;;;15.50;99.90;;;;;;5027722;28;20179;-78
2024/01/03 08:38:29;;;;;;;5.60;1.87;;;15.50;99.90;;;;;;5031028;28;20169;-78
2024/01/03 08:40:58;;;;;;;4.30;1.70;;;15.50;99.90;;;;;;5030950;28;20176;-78
2024/01/03 08:43:24;;;;;;;6.63;1.60;;;15.50;99.90;;;;;;5026574;28;20666;-78
2024/01/03 08:45:53;;;;;;;4.23;1.70;;;15.50;99.90;;;;;;5026749;28;20207;-78
2024/01/03 08:48:21;;;;;;;4.50;1.63;;;15.50;99.90;;;;;;5025466;28;20168;-78
2024/01/03 08:50:50;;;;;;;4.33;1.60;;;15.60;99.90;;;;;;5025312;28;20181;-78
2024/01/03 08:53:15;;;;;;;3.10;1.30;;;15.60;99.90;;;;;;5027858;28;20180;-78
2024/01/03 08:55:41;;;;;;;3.83;1.50;;;15.60;99.90;;;;;;5028192;28;20172;-79
2024/01/03 08:58:08;;;;;;;5.30;1.50;;;15.60;99.90;;;;;;5028850;28;20624;-79
2024/01/03 09:00:34;;;;;;;4.30;1.60;;;15.60;99.90;;;;;;5027110;28;20283;-78
2024/01/03 09:03:00;;;;;;;2.87;1.50;;;15.60;99.90;;;;;;5027649;28;20272;-78
2024/01/03 09:05:26;;;;;;;4.13;1.50;;;15.60;99.90;;;;;;5026768;28;20173;-78
2024/01/03 09:07:52;;;;;;;3.37;1.40;;;15.50;99.90;;;;;;5026853;28;20494;-77
2024/01/03 09:10:20;;;;;;;2.83;1.30;;;15.50;99.90;;;;;;5024519;28;20169;-78
2024/01/03 09:12:49;;;;;;;2.40;1.40;;;15.50;99.90;;;;;;5024065;28;20173;-77
2024/01/03 09:15:15;;;;;;;3.73;1.37;;;15.50;99.90;;;;;;5017102;28;20174;-76
2024/01/03 09:17:44;;;;;;;4.87;1.73;;;15.50;99.90;;;;;;5012604;28;20200;-77
2024/01/03 09:20:13;;;;;;;3.83;1.30;;;15.50;99.90;;;;;;5010929;28;20429;-77
2024/01/03 09:22:39;;;;;;;2.90;1.20;;;15.50;99.90;;;;;;5007032;28;20287;-77
2024/01/03 09:25:05;;;;;;;2.73;1.20;;;15.50;99.90;;;;;;5005926;28;20252;-77
2024/01/03 09:27:34;;;;;;;3.07;1.40;;;15.50;99.90;;;;;;5007180;28;20476;-77
2024/01/03 09:30:00;;;;;;;2.60;1.33;;;15.50;99.90;;;;;;5008842;28;20348;-77
2024/01/03 09:32:26;;;;;;;3.77;1.60;;;15.50;99.90;;;;;;5006893;28;20173;-77
2024/01/03 09:34:54;;;;;;;2.73;1.40;;;15.40;99.90;;;;;;5006475;28;20184;-76
2024/01/03 09:37:23;;;;;;;2.97;1.30;;;15.50;99.90;;;;;;5009444;28;20217;-76
2024/01/03 09:39:52;;;;;;;3.53;1.30;;;15.40;99.90;;;;;;5010123;28;20470;-76
2024/01/03 09:42:18;;;;;;;3.57;1.53;;;15.40;99.90;;;;;;5011678;28;20463;-75
2024/01/03 09:44:44;;;;;;;3.40;1.40;;;15.40;99.90;;;;;;5010156;28;20234;-74
2024/01/03 09:47:13;;;;;;;2.80;1.10;;;15.40;99.90;;;;;;5011897;28;20202;-74
2024/01/03 09:49:39;;;;;;;1.87;1.00;;;15.40;99.90;;;;;;5013319;28;20177;-74
2024/01/03 09:52:07;;;;;;;3.97;1.60;;;15.40;99.90;;;;;;5013793;28;20542;-74
2024/01/03 09:54:33;;;;;;;1.80;1.03;;;15.40;99.90;;;;;;5016358;28;20176;-74
2024/01/03 09:57:00;;;;;;;3.17;1.10;;;15.40;99.90;;;;;;5016837;28;20165;-74
2024/01/03 09:59:46;;;;;;;3.57;1.10;;;15.40;99.90;;;;;;5015460;28;20236;-74
2024/01/03 10:02:13;;;;;;;3.07;1.10;;;15.40;99.90;;;;;;5016348;28;20224;-76
2024/01/03 10:04:47;;;;;;;3.33;1.10;;;15.50;99.90;;;;;;5015767;28;20170;-76
2024/01/03 10:07:16;;;;;;;3.10;1.50;;;15.50;99.90;;;;;;5016128;28;20208;-76
2024/01/03 10:09:46;;;;;;;2.50;1.20;;;15.50;99.90;;;;;;5012862;28;20267;-76
2024/01/03 10:12:21;;;;;;;3.20;1.37;;;15.50;99.90;;;;;;5010703;28;20166;-76
2024/01/03 10:14:47;;;;;;;5.13;1.30;;;15.50;99.90;;;;;;5016278;28;20165;-76
2024/01/03 10:17:16;;;;;;;4.13;1.20;;;15.50;99.90;;;;;;5016303;28;20575;-76
2024/01/03 10:19:47;;;;;;;3.33;1.20;;;15.50;99.90;;;;;;5009792;28;20326;-76
2024/01/03 10:22:18;;;;;;;3.77;1.47;;;15.50;99.90;;;;;;5010897;28;20180;-76
2024/01/03 10:24:46;;;;;;;2.50;1.27;;;15.50;99.90;;;;;;5008547;28;20169;-76
2024/01/03 10:27:12;;;;;;;3.37;1.40;;;15.50;99.90;;;;;;5006795;28;20590;-76
2024/01/03 10:29:38;;;;;;;2.40;1.17;;;15.50;99.90;;;;;;5007781;28;20170;-75
2024/01/03 10:32:09;;;;;;;2.97;1.50;;;15.50;99.90;;;;;;5008785;28;20230;-75
2024/01/03 10:34:36;;;;;;;4.60;1.57;;;15.50;99.90;;;;;;5008565;28;20578;-75
2024/01/03 10:37:04;;;;;;;3.57;1.30;;;15.50;99.90;;;;;;5009245;28;20181;-75
2024/01/03 10:39:38;;;;;;;5.63;1.50;;;15.50;99.90;;;;;;5026962;28;20189;-75
2024/01/03 10:42:07;;;;;;;2.83;1.40;;;15.50;99.90;;;;;;5011493;28;20170;-76
2024/01/03 10:44:35;;;;;;;2.77;1.50;;;15.50;99.90;;;;;;5009603;28;20169;-75
2024/01/03 10:47:04;;;;;;;2.30;1.17;;;15.50;99.90;;;;;;5008977;28;20520;-76
2024/01/03 10:49:29;;;;;;;2.40;1.10;;;15.50;99.90;;;;;;5010213;28;20169;-75
2024/01/03 10:52:04;;;;;;;2.77;1.20;;;15.50;99.90;;;;;;5010801;28;20184;-75
2024/01/03 10:54:41;;;;;;;3.13;1.10;;;15.50;99.90;;;;;;5017092;28;20182;-75
2024/01/03 10:57:14;;;;;;;3.40;1.10;;;15.50;99.90;;;;;;5033393;28;20185;-76
2024/01/03 10:59:58;;;;;;;5.23;1.40;;;15.50;99.90;;;;;;5030922;28;20180;-76
2024/01/03 11:02:38;;;;;;;2.77;1.20;;;15.60;99.90;;;;;;5031231;28;20287;-76
2024/01/03 11:05:36;;;;;;;2.67;1.20;;;15.60;99.90;;;;;;5030786;28;20200;-76
2024/01/03 11:08:12;;;;;;;1.33;1.00;;;15.60;99.90;;;;;;5031285;28;20263;-76
2024/01/03 11:10:53;;;;;;;3.27;1.30;;;15.60;99.90;;;;;;5031250;28;20168;-76
2024/01/03 11:13:32;;;;;;;2.27;1.20;;;15.60;99.90;;;;;;5029648;28;20327;-76
2024/01/03 11:16:00;;;;;;;2.97;1.20;;;15.60;99.90;;;;;;5030891;28;20481;-75
2024/01/03 11:18:43;;;;;;;2.70;1.10;;;15.60;99.90;;;;;;5030499;28;20165;-76
2024/01/03 11:21:26;;;;;;;3.53;1.13;;;15.60;99.90;;;;;;5030133;28;20542;-76
2024/01/03 11:23:56;;;;;;;5.00;1.40;;;15.60;99.90;;;;;;5028679;28;20527;-76
2024/01/03 11:27:03;;;;;;;3.07;1.10;;;15.60;99.90;;;;;;5029175;28;20298;-76
2024/01/03 11:29:35;;;;;;;2.83;1.10;;;15.60;99.90;;;;;;4954160;28;20179;-76
2024/01/03 11:32:06;;;;;;;2.20;1.27;;;15.60;99.90;;;;;;5036239;28;20204;-76
2024/01/03 11:34:44;;;;;;;2.77;1.20;;;15.60;99.90;;;;;;5029370;28;20165;-76
2024/01/03 11:37:19;;;;;;;3.83;1.30;;;15.60;99.90;;;;;;5029182;28;20276;-76
2024/01/03 11:39:49;;;;;;;2.53;1.17;;;15.60;99.90;;;;;;5029252;28;20179;-76
2024/01/03 11:42:29;;;;;;;2.23;1.00;;;15.60;99.90;;;;;;5030325;28;20173;-76
2024/01/03 11:45:06;;;;;;;1.97;1.00;;;15.60;99.90;;;;;;5029145;28;20222;-76
2024/01/03 11:47:33;;;;;;;2.47;1.40;;;15.60;99.90;;;;;;5027238;28;20200;-76
2024/01/03 11:50:03;;;;;;;2.40;1.27;;;15.60;99.90;;;;;;5027785;28;20185;-76
2024/01/03 11:52:39;;;;;;;2.13;1.23;;;15.50;99.90;;;;;;5025889;28;20172;-76
2024/01/03 11:55:10;;;;;;;2.70;1.20;;;15.60;99.90;;;;;;5027700;28;20259;-76
2024/01/03 11:57:44;;;;;;;2.57;1.07;;;15.50;99.90;;;;;;5026607;28;20200;-76
2024/01/03 12:00:19;;;;;;;2.10;1.13;;;15.50;99.90;;;;;;5026033;28;20180;-76
2024/01/03 12:02:55;;;;;;;1.60;1.03;;;15.50;99.90;;;;;;5025347;28;20204;-76
2024/01/03 12:05:24;;;;;;;2.77;1.20;;;15.50;99.90;;;;;;5025694;28;20183;-76
2024/01/03 12:07:51;;;;;;;2.70;1.27;;;15.50;99.90;;;;;;5026243;28;20200;-76
2024/01/03 12:10:23;;;;;;;2.13;1.20;;;15.50;99.90;;;;;;5026383;28;20214;-76
2024/01/03 12:12:52;;;;;;;3.03;1.40;;;15.50;99.90;;;;;;5026649;28;20181;-76
2024/01/03 12:15:28;;;;;;;2.20;1.03;;;15.50;99.90;;;;;;5027370;28;20554;-76
2024/01/03 12:18:09;;;;;;;2.20;1.17;;;15.50;99.90;;;;;;5025214;28;20164;-76
2024/01/03 12:20:38;;;;;;;2.30;0.93;;;15.50;99.90;;;;;;5026931;28;20196;-76
2024/01/03 12:23:14;;;;;;;2.43;1.10;;;15.50;99.90;;;;;;5027671;28;20285;-76
2024/01/03 12:25:47;;;;;;;2.43;1.03;;;15.50;99.90;;;;;;5027395;28;20242;-76
2024/01/03 12:28:19;;;;;;;2.50;1.20;;;15.50;99.90;;;;;;5023387;28;20173;-76
2024/01/03 12:30:46;;;;;;;2.10;1.20;;;15.50;99.90;;;;;;5024988;28;20169;-76
2024/01/03 12:33:15;;;;;;;3.07;1.33;;;15.50;99.90;;;;;;5026280;28;20180;-76
2024/01/03 12:35:47;;;;;;;3.60;1.43;;;15.50;99.90;;;;;;5026761;28;20462;-76
2024/01/03 12:38:20;;;;;;;2.90;1.20;;;15.50;99.90;;;;;;5028635;28;20172;-76
2024/01/03 12:40:47;;;;;;;3.13;1.20;;;15.50;99.90;;;;;;5028011;28;20418;-76
2024/01/03 12:43:12;;;;;;;3.10;1.30;;;15.50;99.90;;;;;;5027717;28;20169;-76
2024/01/03 12:45:41;;;;;;;2.47;1.20;;;15.50;99.90;;;;;;5026151;28;20213;-76
2024/01/03 12:48:07;;;;;;;3.27;1.30;;;15.50;99.90;;;;;;5027309;28;20212;-76
2024/01/03 12:50:34;;;;;;;3.67;1.33;;;15.50;99.90;;;;;;5024921;28;20188;-76
2024/01/03 12:53:00;;;;;;;1.73;1.23;;;15.50;99.90;;;;;;5024388;28;20177;-76
2024/01/03 12:55:27;;;;;;;2.37;1.13;;;15.60;99.90;;;;;;5026150;28;20180;-76
2024/01/03 12:57:53;;;;;;;2.77;1.10;;;15.60;99.90;;;;;;5025968;28;20448;-76
2024/01/03 13:00:20;;;;;;;2.17;1.00;;;15.60;99.90;;;;;;5022387;28;20294;-76
2024/01/03 13:02:46;;;;;;;2.63;1.17;;;15.50;99.90;;;;;;5007181;28;20180;-76